createdAt,value
2022-11-22T00:01:18.586Z,60.90
2022-11-22T00:03:46.552Z,60.70
2022-11-22T00:06:15.906Z,61.37
2022-11-22T00:08:43.887Z,59.57
2022-11-22T00:11:11.868Z,58.67
2022-11-22T00:13:39.855Z,59.40
2022-11-22T00:16:07.867Z,55.30
2022-11-22T00:18:35.846Z,56.73
2022-11-22T00:21:07.197Z,55.07
2022-11-22T00:23:36.720Z,58.17
2022-11-22T00:26:04.829Z,54.73
2022-11-22T00:28:33.078Z,54.80
2022-11-22T00:31:01.544Z,52.57
2022-11-22T00:33:29.614Z,51.83
2022-11-22T00:35:57.583Z,51.97
2022-11-22T00:38:25.582Z,51.83
2022-11-22T00:40:54.960Z,49.07
2022-11-22T00:43:22.950Z,50.80
2022-11-22T00:45:51.005Z,49.83
2022-11-22T00:48:18.992Z,48.57
2022-11-22T00:50:49.375Z,48.23
2022-11-22T00:53:17.609Z,49.37
2022-11-22T00:55:46.419Z,48.77
2022-11-22T00:58:18.075Z,48.37
2022-11-22T01:00:46.213Z,51.50
2022-11-22T01:03:14.867Z,50.20
2022-11-22T01:05:45.387Z,52.47
2022-11-22T01:08:13.353Z,50.37
2022-11-22T01:10:41.626Z,47.43
2022-11-22T01:13:13.493Z,46.93
2022-11-22T01:15:42.867Z,46.27
2022-11-22T01:18:10.872Z,46.80
2022-11-22T01:20:40.666Z,45.50
2022-11-22T01:23:08.684Z,45.60
2022-11-22T01:25:36.799Z,45.03
2022-11-22T01:28:04.905Z,46.07
2022-11-22T01:30:32.939Z,47.40
2022-11-22T01:33:02.682Z,55.00
2022-11-22T01:35:32.013Z,61.30
2022-11-22T01:38:00.024Z,62.40
2022-11-22T01:40:28.498Z,64.50
2022-11-22T01:42:58.402Z,65.93
2022-11-22T01:45:56.784Z,62.83
2022-11-22T01:48:39.072Z,55.67
2022-11-22T01:51:13.060Z,50.87
2022-11-22T01:53:41.408Z,48.30
2022-11-22T01:56:14.252Z,48.30
2022-11-22T01:58:45.884Z,46.87
2022-11-22T02:01:15.013Z,45.83
2022-11-22T02:03:48.258Z,47.93
2022-11-22T02:06:17.921Z,46.63
2022-11-22T02:08:52.969Z,46.03
2022-11-22T02:11:22.434Z,47.40
2022-11-22T02:13:52.704Z,44.27
2022-11-22T02:16:21.457Z,45.03
2022-11-22T02:18:50.889Z,44.27
2022-11-22T02:21:18.880Z,45.37
2022-11-22T02:23:54.305Z,45.77
2022-11-22T02:26:26.829Z,45.63
2022-11-22T02:28:57.751Z,43.47
2022-11-22T02:31:45.039Z,43.43
2022-11-22T02:34:14.664Z,42.93
2022-11-22T02:36:46.594Z,43.13
2022-11-22T02:39:17.300Z,42.63
2022-11-22T02:41:47.344Z,42.00
2022-11-22T02:44:15.984Z,39.90
2022-11-22T02:46:52.040Z,40.53
2022-11-22T02:49:25.079Z,40.30
2022-11-22T02:51:53.896Z,39.20
2022-11-22T02:54:22.173Z,38.23
2022-11-22T02:56:51.547Z,37.93
2022-11-22T02:59:20.020Z,39.23
2022-11-22T03:01:48.694Z,37.30
2022-11-22T03:04:25.489Z,39.03
2022-11-22T03:06:57.929Z,38.17
2022-11-22T03:09:26.834Z,36.80
2022-11-22T03:11:56.433Z,37.50
2022-11-22T03:14:24.531Z,40.33
2022-11-22T03:16:53.068Z,38.83
2022-11-22T03:19:21.223Z,38.50
2022-11-22T03:21:49.327Z,39.57
2022-11-22T03:24:17.659Z,39.03
2022-11-22T03:26:48.962Z,39.20
2022-11-22T03:29:19.241Z,37.40
2022-11-22T03:31:47.332Z,39.73
2022-11-22T03:34:15.839Z,39.77
2022-11-22T03:36:44.082Z,39.93
2022-11-22T03:39:12.073Z,39.00
2022-11-22T03:41:40.097Z,41.33
2022-11-22T03:44:08.269Z,41.13
2022-11-22T03:46:37.663Z,41.40
2022-11-22T03:49:05.652Z,43.07
2022-11-22T03:51:33.625Z,40.57
2022-11-22T03:54:01.667Z,42.17
2022-11-22T03:56:29.691Z,41.97
2022-11-22T03:58:58.999Z,39.90
2022-11-22T04:01:27.316Z,42.03
2022-11-22T04:03:56.728Z,39.90
2022-11-22T04:06:24.700Z,36.13
2022-11-22T04:08:52.824Z,37.50
2022-11-22T04:11:20.845Z,37.67
2022-11-22T04:14:06.473Z,35.37
2022-11-22T04:16:34.591Z,34.33
2022-11-22T04:19:03.978Z,34.17
2022-11-22T04:21:36.762Z,34.33
2022-11-22T04:24:23.979Z,32.07
2022-11-22T04:26:52.464Z,31.87
2022-11-22T04:29:21.126Z,32.87
2022-11-22T04:32:07.459Z,33.90
2022-11-22T04:34:37.513Z,34.07
2022-11-22T04:37:06.339Z,32.37
2022-11-22T04:39:35.591Z,33.10
2022-11-22T04:42:20.893Z,35.20
2022-11-22T04:44:48.906Z,35.33
2022-11-22T04:47:36.328Z,32.47
2022-11-22T04:50:29.006Z,30.93
2022-11-22T04:52:57.394Z,31.10
2022-11-22T04:55:25.540Z,31.00
2022-11-22T04:57:59.155Z,30.77
2022-11-22T05:00:28.524Z,29.50
2022-11-22T05:02:56.835Z,28.07
2022-11-22T05:05:27.042Z,26.77
2022-11-22T05:07:55.104Z,27.73
2022-11-22T05:10:26.833Z,28.27
2022-11-22T05:12:55.421Z,27.67
2022-11-22T05:15:23.424Z,28.67
2022-11-22T05:17:51.394Z,27.90
2022-11-22T05:20:19.442Z,27.27
2022-11-22T05:23:06.141Z,26.27
2022-11-22T05:25:34.134Z,25.60
2022-11-22T05:28:02.111Z,24.37
2022-11-22T05:30:30.148Z,25.07
2022-11-22T05:32:58.113Z,26.40
2022-11-22T05:35:26.077Z,24.70
2022-11-22T05:37:57.295Z,24.30
2022-11-22T05:40:26.235Z,25.57
2022-11-22T05:42:54.218Z,22.07
2022-11-22T05:45:22.207Z,25.07
2022-11-22T05:47:50.185Z,24.43
2022-11-22T05:50:18.408Z,23.27
2022-11-22T05:52:46.442Z,24.03
2022-11-22T05:55:15.924Z,24.23
2022-11-22T05:57:43.985Z,25.73
2022-11-22T06:00:12.758Z,24.00
2022-11-22T06:02:40.810Z,24.83
2022-11-22T06:05:09.683Z,24.70
2022-11-22T06:07:37.779Z,24.63
2022-11-22T06:10:06.208Z,24.63
2022-11-22T06:12:36.113Z,24.60
2022-11-22T06:15:04.352Z,23.93
2022-11-22T06:17:34.659Z,25.30
2022-11-22T06:20:07.032Z,24.27
2022-11-22T06:22:35.093Z,22.93
2022-11-22T06:25:03.216Z,23.00
2022-11-22T06:27:31.308Z,23.63
2022-11-22T06:30:00.683Z,24.13
2022-11-22T06:32:28.685Z,22.83
2022-11-22T06:34:56.676Z,24.03
2022-11-22T06:37:24.946Z,24.67
2022-11-22T06:39:53.250Z,24.77
2022-11-22T06:42:21.350Z,25.33
2022-11-22T06:44:49.360Z,26.03
2022-11-22T06:47:18.826Z,26.03
2022-11-22T06:49:47.250Z,26.67
2022-11-22T06:52:15.229Z,27.17
2022-11-22T06:54:43.498Z,26.77
2022-11-22T06:57:14.880Z,25.93
2022-11-22T06:59:43.122Z,27.67
2022-11-22T07:02:12.913Z,26.93
2022-11-22T07:05:09.455Z,28.30
2022-11-22T07:07:31.394Z,29.20
2022-11-22T07:09:59.472Z,28.63
2022-11-22T07:12:27.649Z,28.43
2022-11-22T07:14:55.675Z,27.47
2022-11-22T07:17:23.786Z,27.97
2022-11-22T07:19:53.126Z,27.90
2022-11-22T07:22:21.740Z,27.80
2022-11-22T07:24:49.733Z,115.60
2022-11-22T07:27:17.729Z,68.33
2022-11-22T07:29:45.750Z,44.70
2022-11-22T07:32:13.862Z,32.00
2022-11-22T07:34:41.847Z,27.60
2022-11-22T07:37:11.199Z,23.07
2022-11-22T07:39:39.188Z,20.87
2022-11-22T07:42:07.233Z,21.07
2022-11-22T07:44:35.203Z,20.27
2022-11-22T07:47:03.215Z,20.03
2022-11-22T07:49:31.422Z,19.83
2022-11-22T07:52:00.006Z,19.13
2022-11-22T07:54:29.358Z,20.63
2022-11-22T07:56:57.348Z,20.03
2022-11-22T07:59:25.432Z,18.37
2022-11-22T08:01:53.469Z,18.13
2022-11-22T08:04:21.760Z,19.80
2022-11-22T08:06:49.825Z,19.67
2022-11-22T08:09:17.921Z,19.53
2022-11-22T08:11:47.299Z,19.73
2022-11-22T08:14:15.648Z,18.97
2022-11-22T08:16:43.648Z,19.73
2022-11-22T08:19:16.002Z,19.40
2022-11-22T08:21:44.515Z,18.67
2022-11-22T08:24:12.495Z,18.83
2022-11-22T08:26:40.578Z,19.07
2022-11-22T08:29:14.314Z,18.77
2022-11-22T08:31:42.713Z,20.10
2022-11-22T08:34:10.916Z,18.97
2022-11-22T08:36:39.266Z,20.50
2022-11-22T08:39:07.391Z,20.23
2022-11-22T08:41:35.380Z,20.60
2022-11-22T08:44:03.335Z,20.27
2022-11-22T08:46:32.728Z,19.30
2022-11-22T08:49:00.729Z,17.87
2022-11-22T08:51:28.708Z,19.47
2022-11-22T08:53:59.373Z,18.67
2022-11-22T08:56:27.357Z,19.23
2022-11-22T08:58:55.547Z,18.13
2022-11-22T09:01:23.718Z,17.70
2022-11-22T09:03:53.139Z,18.40
2022-11-22T09:12:00.059Z,18.97
2022-11-22T09:14:28.046Z,17.37
2022-11-22T09:16:56.043Z,17.27
2022-11-22T09:19:25.441Z,19.13
2022-11-22T09:21:53.554Z,17.70
2022-11-22T09:24:21.643Z,19.20
2022-11-22T09:26:49.665Z,18.57
2022-11-22T09:29:17.676Z,18.70
2022-11-22T09:31:45.686Z,19.13
2022-11-22T09:34:13.705Z,18.80
2022-11-22T09:36:43.043Z,19.00
2022-11-22T09:39:11.219Z,19.00
2022-11-22T09:42:13.250Z,21.23
2022-11-22T09:44:56.176Z,21.03
2022-11-22T09:47:33.406Z,22.50
2022-11-22T09:50:12.249Z,22.07
2022-11-22T09:52:45.285Z,23.00
2022-11-22T09:55:24.394Z,21.67
2022-11-22T09:58:03.274Z,22.73
2022-11-22T10:00:31.413Z,23.37
2022-11-22T10:03:07.790Z,24.93
2022-11-22T10:05:44.274Z,25.20
2022-11-22T10:08:24.328Z,24.27
2022-11-22T10:10:54.933Z,26.00
2022-11-22T10:13:29.828Z,23.53
2022-11-22T10:16:04.617Z,24.43
2022-11-22T10:18:39.626Z,24.50
2022-11-22T10:21:12.677Z,24.97
2022-11-22T10:23:43.020Z,24.57
2022-11-22T10:26:21.895Z,25.83
2022-11-22T10:29:01.211Z,24.60
2022-11-22T10:31:34.071Z,24.80
2022-11-22T10:34:12.636Z,23.40
2022-11-22T10:36:50.159Z,23.87
2022-11-22T10:39:31.554Z,23.63
2022-11-22T10:42:20.076Z,23.53
2022-11-22T10:44:55.531Z,23.73
2022-11-22T10:47:47.976Z,25.93
2022-11-22T10:50:23.391Z,25.37
2022-11-22T10:53:01.780Z,25.97
2022-11-22T10:55:49.874Z,25.90
2022-11-22T10:58:28.847Z,25.37
2022-11-22T11:01:05.652Z,25.40
2022-11-22T11:03:36.316Z,25.13
2022-11-22T11:06:43.475Z,26.57
2022-11-22T11:09:54.931Z,25.03
2022-11-22T11:11:53.807Z,23.37
2022-11-22T11:14:30.894Z,24.37
2022-11-22T11:17:00.578Z,24.53
2022-11-22T11:19:33.108Z,24.73
2022-11-22T11:22:27.136Z,24.53
2022-11-22T11:25:30.162Z,24.83
2022-11-22T11:28:03.894Z,24.27
2022-11-22T11:30:40.163Z,25.10
2022-11-22T11:33:43.720Z,23.77
2022-11-22T11:36:15.191Z,23.67
2022-11-22T11:38:53.722Z,23.50
2022-11-22T11:41:25.367Z,24.77
2022-11-22T11:43:55.987Z,24.73
2022-11-22T11:46:26.003Z,25.23
2022-11-22T11:48:55.324Z,25.00
2022-11-22T11:51:36.617Z,25.20
2022-11-22T11:54:12.291Z,25.63
2022-11-22T11:56:58.900Z,24.17
2022-11-22T11:59:43.627Z,24.30
2022-11-22T12:02:15.312Z,25.17
2022-11-22T12:04:50.668Z,23.30
2022-11-22T12:07:20.726Z,24.13
2022-11-22T12:09:50.145Z,23.50
2022-11-22T12:12:46.428Z,24.67
2022-11-22T12:15:21.976Z,25.23
2022-11-22T12:18:00.151Z,25.90
2022-11-22T12:20:37.277Z,26.70
2022-11-22T12:23:15.582Z,29.03
2022-11-22T12:25:44.423Z,27.63
2022-11-22T12:28:19.413Z,29.13
2022-11-22T12:30:54.063Z,27.90
2022-11-22T12:33:27.592Z,26.07
2022-11-22T12:35:57.837Z,26.47
2022-11-22T12:38:32.675Z,26.33
2022-11-22T12:41:04.712Z,26.13
2022-11-22T12:43:38.983Z,27.30
2022-11-22T12:46:13.034Z,28.53
2022-11-22T12:48:48.945Z,28.53
2022-11-22T12:51:25.466Z,30.10
2022-11-22T12:53:56.674Z,29.33
2022-11-22T12:56:33.054Z,26.07
2022-11-22T12:59:07.650Z,28.40
2022-11-22T13:01:44.663Z,27.60
2022-11-22T13:04:20.600Z,27.60
2022-11-22T13:06:56.792Z,29.03
2022-11-22T13:09:29.337Z,28.53
2022-11-22T13:12:05.367Z,28.77
2022-11-22T13:14:36.853Z,27.73
2022-11-22T13:17:09.656Z,28.70
2022-11-22T13:19:46.647Z,28.50
2022-11-22T13:22:22.264Z,27.73
2022-11-22T13:25:20.871Z,29.30
2022-11-22T13:27:51.941Z,30.23
2022-11-22T13:30:23.607Z,28.67
2022-11-22T13:32:54.818Z,27.30
2022-11-22T13:35:32.040Z,29.10
2022-11-22T13:38:03.030Z,27.60
2022-11-22T13:40:34.973Z,27.33
2022-11-22T13:43:54.451Z,26.83
2022-11-22T13:46:51.901Z,26.27
2022-11-22T13:49:39.992Z,25.93
2022-11-22T13:52:34.839Z,26.33
2022-11-22T13:55:27.327Z,26.77
2022-11-22T13:57:55.550Z,34.27
2022-11-22T14:00:48.431Z,37.57
2022-11-22T14:03:37.237Z,36.57
2022-11-22T14:06:30.645Z,33.27
2022-11-22T14:09:28.557Z,32.90
2022-11-22T14:12:13.518Z,30.47
2022-11-22T14:14:51.576Z,28.43
2022-11-22T14:17:28.533Z,27.57
2022-11-22T14:20:04.019Z,27.33
2022-11-22T14:22:48.670Z,29.47
2022-11-22T14:25:49.466Z,29.80
2022-11-22T14:28:36.651Z,28.10
2022-11-22T14:31:15.286Z,27.80
2022-11-22T14:34:12.976Z,28.77
2022-11-22T14:36:41.002Z,27.77
2022-11-22T14:39:56.515Z,26.97
2022-11-22T14:42:48.231Z,28.37
2022-11-22T14:45:26.953Z,28.33
2022-11-22T14:48:14.646Z,30.07
2022-11-22T14:50:45.499Z,29.93
2022-11-22T14:53:25.376Z,28.77
2022-11-22T14:55:58.655Z,30.43
2022-11-22T14:58:30.805Z,32.43
2022-11-22T15:01:15.834Z,31.53
2022-11-22T15:09:10.289Z,30.77
2022-11-22T15:09:16.120Z,30.37
2022-11-22T15:10:39.181Z,30.60
2022-11-22T15:13:30.734Z,30.07
2022-11-22T15:59:10.332Z,26.73
2022-11-22T16:01:40.984Z,25.30
2022-11-22T16:04:21.461Z,26.80
2022-11-22T16:06:52.728Z,25.40
2022-11-22T16:09:29.626Z,24.93
2022-11-22T16:12:04.652Z,24.33
2022-11-22T16:14:48.890Z,24.30
2022-11-22T16:17:32.205Z,23.20
2022-11-22T16:20:28.015Z,23.90
2022-11-22T16:23:19.747Z,23.43
2022-11-22T16:25:49.837Z,25.57
2022-11-22T16:28:30.656Z,24.70
2022-11-22T16:31:00.490Z,25.00
2022-11-22T16:33:28.614Z,25.27
2022-11-22T16:35:57.663Z,26.27
2022-11-22T16:38:28.634Z,25.03
2022-11-22T16:40:58.826Z,24.77
2022-11-22T16:43:30.026Z,25.73
2022-11-22T16:45:58.044Z,24.87
2022-11-22T16:48:32.665Z,24.27
2022-11-22T16:51:04.388Z,23.00
2022-11-22T16:53:41.336Z,22.83
2022-11-22T16:56:10.494Z,24.53
2022-11-22T16:58:38.484Z,24.27
2022-11-22T17:01:07.337Z,25.73
2022-11-22T17:03:39.411Z,25.43
2022-11-22T17:06:07.806Z,25.97
2022-11-22T17:08:39.460Z,24.93
2022-11-22T17:11:07.618Z,25.43
2022-11-22T17:13:35.618Z,24.47
2022-11-22T17:16:03.575Z,25.47
2022-11-22T17:18:31.575Z,25.53
2022-11-22T17:21:00.336Z,24.83
2022-11-22T17:23:32.919Z,26.73
2022-11-22T17:26:03.494Z,25.80
2022-11-22T17:28:32.203Z,29.03
2022-11-22T17:31:01.645Z,27.63
2022-11-22T17:33:30.223Z,27.57
2022-11-22T17:35:58.230Z,26.57
2022-11-22T17:38:26.276Z,25.77
2022-11-22T17:41:00.168Z,25.83
2022-11-22T17:43:29.533Z,22.93
2022-11-22T17:45:57.739Z,23.53
2022-11-22T17:48:25.736Z,24.27
2022-11-22T17:50:53.741Z,23.77
2022-11-22T17:53:21.708Z,23.83
2022-11-22T17:56:09.553Z,26.20
2022-11-22T17:58:39.316Z,25.17
2022-11-22T18:01:10.682Z,25.77
2022-11-22T18:03:38.917Z,25.87
2022-11-22T18:06:07.777Z,26.67
2022-11-22T18:08:36.060Z,26.70
2022-11-22T18:11:05.433Z,25.97
2022-11-22T18:13:35.979Z,26.70
2022-11-22T18:16:07.712Z,25.10
2022-11-22T18:21:26.016Z,24.70
2022-11-22T18:23:54.021Z,24.67
2022-11-22T18:26:39.717Z,24.37
2022-11-22T18:29:40.704Z,25.60
2022-11-22T18:32:01.386Z,27.03
2022-11-22T18:34:30.299Z,26.53
2022-11-22T18:37:02.635Z,27.13
2022-11-22T18:39:32.809Z,27.50
2022-11-22T18:42:01.106Z,27.57
2022-11-22T18:44:29.084Z,28.27
2022-11-22T18:46:58.419Z,28.40
2022-11-22T18:49:26.475Z,28.57
2022-11-22T18:51:55.620Z,29.10
2022-11-22T18:54:26.988Z,30.40
2022-11-22T18:56:55.152Z,28.93
2022-11-22T18:59:23.244Z,29.37
2022-11-22T19:01:51.543Z,28.07
2022-11-22T19:04:21.132Z,28.90
2022-11-22T19:06:49.139Z,27.80
2022-11-22T19:09:17.122Z,28.73
2022-11-22T19:11:45.111Z,29.07
2022-11-22T19:14:13.108Z,29.30
2022-11-22T19:16:41.111Z,29.67
2022-11-22T19:19:12.061Z,31.00
2022-11-22T19:21:41.460Z,29.40
2022-11-22T19:24:09.703Z,30.10
2022-11-22T19:26:37.787Z,29.93
2022-11-22T19:29:08.735Z,29.83
2022-11-22T19:31:38.728Z,31.67
2022-11-22T19:34:06.873Z,30.80
2022-11-22T19:36:37.845Z,32.27
2022-11-22T19:39:08.980Z,32.47
2022-11-22T19:41:37.380Z,30.80
2022-11-22T19:44:05.510Z,32.40
2022-11-22T19:46:33.582Z,31.27
2022-11-22T19:49:02.125Z,30.47
2022-11-22T19:51:31.935Z,31.63
2022-11-22T19:54:02.627Z,31.73
2022-11-22T19:56:33.891Z,30.37
2022-11-22T19:59:03.810Z,31.47
2022-11-22T20:01:33.809Z,31.17
2022-11-22T20:04:04.477Z,32.43
2022-11-22T20:06:33.067Z,32.60
2022-11-22T20:09:03.168Z,31.43
2022-11-22T20:11:32.530Z,31.67
2022-11-22T20:14:00.932Z,32.57
2022-11-22T20:16:31.098Z,31.90
2022-11-22T20:19:02.201Z,32.20
2022-11-22T20:21:32.022Z,32.50
2022-11-22T20:24:01.345Z,31.60
2022-11-22T20:26:35.677Z,32.30
2022-11-22T20:29:07.260Z,31.83
2022-11-22T20:31:36.978Z,32.27
2022-11-22T20:34:06.002Z,31.43
2022-11-22T20:36:35.654Z,31.30
2022-11-22T20:39:09.524Z,33.47
2022-11-22T20:41:39.948Z,32.80
2022-11-22T20:44:08.331Z,32.10
2022-11-22T20:46:38.178Z,33.27
2022-11-22T20:49:06.254Z,32.20
2022-11-22T20:51:41.334Z,32.03
2022-11-22T20:54:10.281Z,31.77
2022-11-22T20:56:39.895Z,30.30
2022-11-22T20:59:08.069Z,31.67
2022-11-22T21:01:36.545Z,31.57
2022-11-22T21:04:04.809Z,31.73
2022-11-22T21:06:34.975Z,29.90
2022-11-22T21:09:05.645Z,31.53
2022-11-22T21:11:33.745Z,32.77
2022-11-22T21:14:07.719Z,32.90
2022-11-22T21:16:35.732Z,34.73
2022-11-22T21:19:06.832Z,33.27
2022-11-22T21:21:38.331Z,33.67
2022-11-22T21:24:07.671Z,31.63
2022-11-22T21:26:36.019Z,31.80
2022-11-22T21:29:16.038Z,30.63
2022-11-22T21:31:44.399Z,31.10
2022-11-22T21:34:13.130Z,30.70
2022-11-22T21:36:41.133Z,31.40
2022-11-22T21:39:09.140Z,32.93
2022-11-22T21:41:40.375Z,32.10
2022-11-22T21:44:11.742Z,30.83
2022-11-22T21:46:39.838Z,32.27
2022-11-22T21:49:08.261Z,32.17
2022-11-22T21:51:36.387Z,32.43
2022-11-22T21:54:05.323Z,31.77
2022-11-22T21:56:33.688Z,32.30
2022-11-22T21:59:04.073Z,33.40
2022-11-22T22:01:34.032Z,32.63
2022-11-22T22:04:02.168Z,33.80
2022-11-22T22:06:30.427Z,32.00
2022-11-22T22:08:59.482Z,33.33
2022-11-22T22:11:27.701Z,31.80
2022-11-22T22:13:56.682Z,31.07
2022-11-22T22:16:26.039Z,32.13
2022-11-22T22:18:55.705Z,31.83
2022-11-22T22:21:23.779Z,32.30
2022-11-22T22:23:53.283Z,31.93
2022-11-22T22:26:23.681Z,33.03
2022-11-22T22:28:53.245Z,32.47
2022-11-22T22:31:23.336Z,32.63
2022-11-22T22:33:53.990Z,31.90
2022-11-22T22:36:24.104Z,30.93
2022-11-22T22:38:52.298Z,31.10
2022-11-22T22:41:20.702Z,31.93
2022-11-22T22:43:49.965Z,30.67
2022-11-22T22:46:19.787Z,31.20
2022-11-22T22:48:48.533Z,32.50
2022-11-22T22:51:18.769Z,31.90
2022-11-22T22:53:48.638Z,30.70
2022-11-22T22:56:18.308Z,32.53
2022-11-22T22:58:46.444Z,31.77
2022-11-22T23:01:17.341Z,32.40
2022-11-22T23:03:49.034Z,30.23
2022-11-22T23:06:18.048Z,32.07
2022-11-22T23:08:48.900Z,32.20
2022-11-22T23:11:18.642Z,31.93
2022-11-22T23:13:46.911Z,31.20
2022-11-22T23:16:16.329Z,31.00
2022-11-22T23:18:45.878Z,31.50
2022-11-22T23:21:15.632Z,32.10
2022-11-22T23:23:43.611Z,32.27
2022-11-22T23:26:14.728Z,31.17
2022-11-22T23:28:43.156Z,31.20
2022-11-22T23:31:13.612Z,33.93
2022-11-22T23:33:42.183Z,32.47
2022-11-22T23:36:12.514Z,30.60
2022-11-22T23:38:41.398Z,32.00
2022-11-22T23:41:12.363Z,32.23
2022-11-22T23:43:41.843Z,31.77
2022-11-22T23:46:15.831Z,31.40
2022-11-22T23:48:44.087Z,31.27
2022-11-22T23:51:14.097Z,31.47
2022-11-22T23:53:43.695Z,31.57
2022-11-22T23:56:21.346Z,30.63
2022-11-22T23:58:52.736Z,29.73
